sensor_id;sensor_type;location;lat;lon;timestamp;temperature;humidity
19224;DHT22;9746;47.180;9.776;2023-04-25T12:55:14;17.90;99.90
19224;DHT22;9746;47.180;9.776;2023-04-25T12:57:41;17.00;99.90
19224;DHT22;9746;47.180;9.776;2023-04-25T13:00:15;16.70;99.90
19224;DHT22;9746;47.180;9.776;2023-04-25T13:02:45;16.90;99.90
19224;DHT22;9746;47.180;9.776;2023-04-25T13:05:13;16.70;99.90
19224;DHT22;9746;47.180;9.776;2023-04-25T13:07:41;16.50;99.90
19224;DHT22;9746;47.180;9.776;2023-04-25T13:10:13;16.40;99.90
19224;DHT22;9746;47.180;9.776;2023-04-25T13:12:41;16.40;99.90
19224;DHT22;9746;47.180;9.776;2023-04-25T13:15:10;16.30;99.90
19224;DHT22;9746;47.180;9.776;2023-04-25T13:17:38;16.10;99.90
19224;DHT22;9746;47.180;9.776;2023-04-25T13:20:42;15.90;99.90
19224;DHT22;9746;47.180;9.776;2023-04-25T13:23:09;15.90;99.90
19224;DHT22;9746;47.180;9.776;2023-04-25T13:26:02;15.70;99.90
19224;DHT22;9746;47.180;9.776;2023-04-25T13:31:22;15.50;99.90
19224;DHT22;9746;47.180;9.776;2023-04-25T13:34:08;15.30;99.90
19224;DHT22;9746;47.180;9.776;2023-04-25T13:36:36;15.20;99.90
19224;DHT22;9746;47.180;9.776;2023-04-25T13:39:06;15.10;99.90
19224;DHT22;9746;47.180;9.776;2023-04-25T13:41:34;14.90;99.90
19224;DHT22;9746;47.180;9.776;2023-04-25T13:44:07;14.80;99.90
19224;DHT22;9746;47.180;9.776;2023-04-25T13:46:35;14.50;99.90
19224;DHT22;9746;47.180;9.776;2023-04-25T13:49:16;14.10;99.90
19224;DHT22;9746;47.180;9.776;2023-04-25T13:51:43;13.80;99.90
19224;DHT22;9746;47.180;9.776;2023-04-25T13:54:11;13.70;99.90
19224;DHT22;9746;47.180;9.776;2023-04-25T13:56:40;13.70;99.90
19224;DHT22;9746;47.180;9.776;2023-04-25T13:59:22;13.50;99.90
19224;DHT22;9746;47.180;9.776;2023-04-25T14:01:51;13.60;99.90
19224;DHT22;9746;47.180;9.776;2023-04-25T14:04:18;13.50;99.90
19224;DHT22;9746;47.180;9.776;2023-04-25T14:06:46;13.30;99.90
19224;DHT22;9746;47.180;9.776;2023-04-25T14:09:47;13.30;99.90
19224;DHT22;9746;47.180;9.776;2023-04-25T14:12:16;13.10;99.90
19224;DHT22;9746;47.180;9.776;2023-04-25T14:18:07;12.80;99.90
19224;DHT22;9746;47.180;9.776;2023-04-25T14:23:34;12.70;99.90
19224;DHT22;9746;47.180;9.776;2023-04-25T14:26:09;12.70;99.90
19224;DHT22;9746;47.180;9.776;2023-04-25T14:28:39;12.60;99.90
19224;DHT22;9746;47.180;9.776;2023-04-25T14:34:20;12.50;99.90
19224;DHT22;9746;47.180;9.776;2023-04-25T14:36:47;12.40;99.90
19224;DHT22;9746;47.180;9.776;2023-04-25T14:39:24;12.40;99.90
19224;DHT22;9746;47.180;9.776;2023-04-25T14:41:52;12.30;99.90
19224;DHT22;9746;47.180;9.776;2023-04-25T14:44:28;12.00;99.90
19224;DHT22;9746;47.180;9.776;2023-04-25T14:46:56;11.70;99.90
19224;DHT22;9746;47.180;9.776;2023-04-25T14:49:39;11.60;99.90
19224;DHT22;9746;47.180;9.776;2023-04-25T14:52:08;11.50;99.90
19224;DHT22;9746;47.180;9.776;2023-04-25T14:54:50;11.50;99.90
19224;DHT22;9746;47.180;9.776;2023-04-25T14:57:18;11.50;99.90
19224;DHT22;9746;47.180;9.776;2023-04-25T15:00:07;11.60;99.90
19224;DHT22;9746;47.180;9.776;2023-04-25T15:02:36;11.70;99.90
19224;DHT22;9746;47.180;9.776;2023-04-25T15:05:06;11.70;99.90
19224;DHT22;9746;47.180;9.776;2023-04-25T15:07:35;11.80;99.90
19224;DHT22;9746;47.180;9.776;2023-04-25T15:10:13;12.00;99.90
19224;DHT22;9746;47.180;9.776;2023-04-25T15:12:42;12.20;99.90
19224;DHT22;9746;47.180;9.776;2023-04-25T15:15:32;12.50;99.90
19224;DHT22;9746;47.180;9.776;2023-04-25T15:18:06;12.60;99.90
19224;DHT22;9746;47.180;9.776;2023-04-25T15:20:34;12.40;99.90
19224;DHT22;9746;47.180;9.776;2023-04-25T15:23:02;12.50;99.90
19224;DHT22;9746;47.180;9.776;2023-04-25T15:25:32;12.40;99.90
19224;DHT22;9746;47.180;9.776;2023-04-25T15:27:59;12.10;99.90
19224;DHT22;9746;47.180;9.776;2023-04-25T15:30:39;12.00;99.90
19224;DHT22;9746;47.180;9.776;2023-04-25T15:33:07;11.70;99.90
19224;DHT22;9746;47.180;9.776;2023-04-25T15:35:49;11.60;99.90
19224;DHT22;9746;47.180;9.776;2023-04-25T15:38:16;11.70;99.90
19224;DHT22;9746;47.180;9.776;2023-04-25T15:41:12;11.70;99.90
19224;DHT22;9746;47.180;9.776;2023-04-25T15:43:39;11.70;99.90
19224;DHT22;9746;47.180;9.776;2023-04-25T15:49:27;11.90;99.90
19224;DHT22;9746;47.180;9.776;2023-04-25T15:51:56;12.00;99.90
19224;DHT22;9746;47.180;9.776;2023-04-25T15:54:23;12.10;99.90
19224;DHT22;9746;47.180;9.776;2023-04-25T15:56:51;12.10;99.90
19224;DHT22;9746;47.180;9.776;2023-04-25T15:59:20;12.10;99.90
19224;DHT22;9746;47.180;9.776;2023-04-25T16:01:51;12.10;99.90
19224;DHT22;9746;47.180;9.776;2023-04-25T16:04:19;12.10;99.90
19224;DHT22;9746;47.180;9.776;2023-04-25T16:06:54;12.00;99.90
19224;DHT22;9746;47.180;9.776;2023-04-25T16:09:22;12.00;99.90
19224;DHT22;9746;47.180;9.776;2023-04-25T16:11:50;12.00;99.90
19224;DHT22;9746;47.180;9.776;2023-04-25T16:14:18;12.10;99.90
19224;DHT22;9746;47.180;9.776;2023-04-25T16:16:58;12.10;99.90
19224;DHT22;9746;47.180;9.776;2023-04-25T16:19:25;12.10;99.90
19224;DHT22;9746;47.180;9.776;2023-04-25T16:22:03;12.00;99.90
19224;DHT22;9746;47.180;9.776;2023-04-25T16:24:30;12.00;99.90
19224;DHT22;9746;47.180;9.776;2023-04-25T16:27:01;12.00;99.90
19224;DHT22;9746;47.180;9.776;2023-04-25T16:29:28;11.90;99.90
19224;DHT22;9746;47.180;9.776;2023-04-25T16:31:57;11.90;99.90
19224;DHT22;9746;47.180;9.776;2023-04-25T16:34:24;11.80;99.90
19224;DHT22;9746;47.180;9.776;2023-04-25T16:36:58;11.70;99.90
19224;DHT22;9746;47.180;9.776;2023-04-25T16:39:27;11.70;99.90
19224;DHT22;9746;47.180;9.776;2023-04-25T16:42:09;11.70;99.90
19224;DHT22;9746;47.180;9.776;2023-04-25T16:44:38;11.60;99.90
19224;DHT22;9746;47.180;9.776;2023-04-25T16:47:05;11.60;99.90
19224;DHT22;9746;47.180;9.776;2023-04-25T16:49:34;11.60;99.90
19224;DHT22;9746;47.180;9.776;2023-04-25T16:52:10;11.60;99.90
19224;DHT22;9746;47.180;9.776;2023-04-25T16:54:39;11.60;99.90
19224;DHT22;9746;47.180;9.776;2023-04-25T16:57:19;11.60;99.90
19224;DHT22;9746;47.180;9.776;2023-04-25T16:59:48;11.50;99.90
19224;DHT22;9746;47.180;9.776;2023-04-25T17:02:15;11.50;99.90
19224;DHT22;9746;47.180;9.776;2023-04-25T17:04:44;11.50;99.90
19224;DHT22;9746;47.180;9.776;2023-04-25T17:07:12;11.50;99.90
19224;DHT22;9746;47.180;9.776;2023-04-25T17:09:43;11.50;99.90
19224;DHT22;9746;47.180;9.776;2023-04-25T17:12:22;11.50;99.90
19224;DHT22;9746;47.180;9.776;2023-04-25T17:14:49;11.50;99.90
19224;DHT22;9746;47.180;9.776;2023-04-25T17:17:17;11.40;99.90
19224;DHT22;9746;47.180;9.776;2023-04-25T17:19:48;11.30;99.90
19224;DHT22;9746;47.180;9.776;2023-04-25T17:22:34;11.30;99.90
19224;DHT22;9746;47.180;9.776;2023-04-25T17:25:04;11.10;99.90
19224;DHT22;9746;47.180;9.776;2023-04-25T17:27:34;11.00;99.90
19224;DHT22;9746;47.180;9.776;2023-04-25T17:30:26;11.00;99.90
19224;DHT22;9746;47.180;9.776;2023-04-25T17:32:54;10.90;99.90
19224;DHT22;9746;47.180;9.776;2023-04-25T17:35:31;10.80;99.90
19224;DHT22;9746;47.180;9.776;2023-04-25T17:38:01;10.80;99.90
19224;DHT22;9746;47.180;9.776;2023-04-25T17:40:30;10.70;99.90
19224;DHT22;9746;47.180;9.776;2023-04-25T17:42:58;10.70;99.90
19224;DHT22;9746;47.180;9.776;2023-04-25T17:45:47;10.70;99.90
19224;DHT22;9746;47.180;9.776;2023-04-25T17:48:15;10.70;99.90
19224;DHT22;9746;47.180;9.776;2023-04-25T17:51:19;10.60;99.90
19224;DHT22;9746;47.180;9.776;2023-04-25T17:53:47;10.50;99.90
19224;DHT22;9746;47.180;9.776;2023-04-25T17:56:26;10.40;99.90
19224;DHT22;9746;47.180;9.776;2023-04-25T17:58:54;10.30;99.90
19224;DHT22;9746;47.180;9.776;2023-04-25T18:01:28;10.30;99.90
19224;DHT22;9746;47.180;9.776;2023-04-25T18:03:55;10.30;99.90
19224;DHT22;9746;47.180;9.776;2023-04-25T18:06:25;10.30;99.90
19224;DHT22;9746;47.180;9.776;2023-04-25T18:08:54;10.10;99.90
19224;DHT22;9746;47.180;9.776;2023-04-25T18:11:25;10.00;99.90
19224;DHT22;9746;47.180;9.776;2023-04-25T18:13:56;9.80;99.90
19224;DHT22;9746;47.180;9.776;2023-04-25T18:16:30;9.80;99.90
19224;DHT22;9746;47.180;9.776;2023-04-25T18:18:58;9.80;99.90
19224;DHT22;9746;47.180;9.776;2023-04-25T18:22:03;9.80;99.90
19224;DHT22;9746;47.180;9.776;2023-04-25T18:24:30;9.80;99.90
19224;DHT22;9746;47.180;9.776;2023-04-25T18:30:19;9.80;99.90
19224;DHT22;9746;47.180;9.776;2023-04-25T18:33:05;9.80;99.90
19224;DHT22;9746;47.180;9.776;2023-04-25T18:35:32;9.70;99.90
19224;DHT22;9746;47.180;9.776;2023-04-25T18:38:03;9.60;99.90
19224;DHT22;9746;47.180;9.776;2023-04-25T18:40:32;9.60;99.90
19224;DHT22;9746;47.180;9.776;2023-04-25T18:43:05;9.50;99.90
19224;DHT22;9746;47.180;9.776;2023-04-25T18:45:37;9.40;99.90
19224;DHT22;9746;47.180;9.776;2023-04-25T18:48:06;9.30;99.90
19224;DHT22;9746;47.180;9.776;2023-04-25T18:50:33;9.30;99.90
19224;DHT22;9746;47.180;9.776;2023-04-25T18:53:04;9.20;99.90
19224;DHT22;9746;47.180;9.776;2023-04-25T18:55:33;9.10;99.90
19224;DHT22;9746;47.180;9.776;2023-04-25T18:58:18;9.00;99.90
19224;DHT22;9746;47.180;9.776;2023-04-25T19:00:48;8.90;99.90
19224;DHT22;9746;47.180;9.776;2023-04-25T19:03:16;8.90;99.90
19224;DHT22;9746;47.180;9.776;2023-04-25T19:05:43;8.60;99.90
19224;DHT22;9746;47.180;9.776;2023-04-25T19:08:10;8.50;99.90
19224;DHT22;9746;47.180;9.776;2023-04-25T19:10:38;8.40;99.90
19224;DHT22;9746;47.180;9.776;2023-04-25T19:13:14;8.30;99.90
19224;DHT22;9746;47.180;9.776;2023-04-25T19:15:41;8.20;99.90
19224;DHT22;9746;47.180;9.776;2023-04-25T19:18:27;8.10;99.90
19224;DHT22;9746;47.180;9.776;2023-04-25T19:20:57;8.00;99.90
19224;DHT22;9746;47.180;9.776;2023-04-25T19:23:25;8.00;99.90
19224;DHT22;9746;47.180;9.776;2023-04-25T19:25:52;7.90;99.90
19224;DHT22;9746;47.180;9.776;2023-04-25T19:28:19;7.90;99.90
19224;DHT22;9746;47.180;9.776;2023-04-25T19:30:47;7.90;99.90
19224;DHT22;9746;47.180;9.776;2023-04-25T19:33:18;7.90;99.90
19224;DHT22;9746;47.180;9.776;2023-04-25T19:35:47;7.90;99.90
19224;DHT22;9746;47.180;9.776;2023-04-25T19:38:15;7.90;99.90
19224;DHT22;9746;47.180;9.776;2023-04-25T19:40:42;7.80;99.90
19224;DHT22;9746;47.180;9.776;2023-04-25T19:43:11;7.90;99.90
19224;DHT22;9746;47.180;9.776;2023-04-25T19:45:38;7.90;99.90
19224;DHT22;9746;47.180;9.776;2023-04-25T19:48:12;7.90;99.90
19224;DHT22;9746;47.180;9.776;2023-04-25T19:50:39;7.90;99.90
19224;DHT22;9746;47.180;9.776;2023-04-25T19:53:08;8.00;99.90
19224;DHT22;9746;47.180;9.776;2023-04-25T19:55:36;8.10;99.90
19224;DHT22;9746;47.180;9.776;2023-04-25T19:58:20;8.10;99.90
19224;DHT22;9746;47.180;9.776;2023-04-25T20:00:48;8.00;99.90
19224;DHT22;9746;47.180;9.776;2023-04-25T20:03:21;7.90;99.90
19224;DHT22;9746;47.180;9.776;2023-04-25T20:05:49;7.70;99.90
19224;DHT22;9746;47.180;9.776;2023-04-25T20:08:18;7.70;99.90
19224;DHT22;9746;47.180;9.776;2023-04-25T20:10:45;7.70;99.90
19224;DHT22;9746;47.180;9.776;2023-04-25T20:13:20;7.70;99.90
19224;DHT22;9746;47.180;9.776;2023-04-25T20:15:48;7.70;99.90
19224;DHT22;9746;47.180;9.776;2023-04-25T20:18:30;7.60;99.90
19224;DHT22;9746;47.180;9.776;2023-04-25T20:20:58;7.50;99.90
19224;DHT22;9746;47.180;9.776;2023-04-25T20:23:29;7.40;99.90
19224;DHT22;9746;47.180;9.776;2023-04-25T20:25:56;7.30;99.90
19224;DHT22;9746;47.180;9.776;2023-04-25T20:28:38;7.20;99.90
19224;DHT22;9746;47.180;9.776;2023-04-25T20:31:06;7.30;99.90
19224;DHT22;9746;47.180;9.776;2023-04-25T20:33:47;7.20;99.90
19224;DHT22;9746;47.180;9.776;2023-04-25T20:36:15;7.30;99.90
19224;DHT22;9746;47.180;9.776;2023-04-25T20:38:45;7.30;99.90
19224;DHT22;9746;47.180;9.776;2023-04-25T20:41:13;7.20;99.90
19224;DHT22;9746;47.180;9.776;2023-04-25T20:43:42;7.30;99.90
